Aviation Digital Data Service (ADDS)

Output produced by METARs form (0107 UTC 05 July 2022)
found at http://www.aviationweather.gov/metar/data/
 
METAR text: LIPQ 050050Z AUTO 16003KT 110V180 9999 FEW047/// SCT054/// OVC085/// 25/18 Q1013
Conditions at: LIPQ (RONCHI LEGIONARI, IT) observed 0050 UTC 05 July 2022
Temperature: 25.0°C (77°F)
Dewpoint: 18.0°C (64°F) [RH = 65%]
Pressure (altimeter): 29.91 inches Hg (1013.0 mb)
Winds: from the SSE (160 degrees) at 3 MPH (3 knots; 1.5 m/s)
Visibility: 6 or more miles (10+ km)
Ceiling: 8500 feet AGL
Clouds: few clouds at 4700 feet AGL
scattered clouds at 5400 feet AGL
overcast cloud deck at 8500 feet AGL
Weather: no significant weather observed at this time

METAR text: LIPQ 050020Z AUTO 02003KT 320V060 9999 BKN068/// OVC110/// 24/19 Q1013
Conditions at: LIPQ (RONCHI LEGIONARI, IT) observed 0020 UTC 05 July 2022
Temperature: 24.0°C (75°F)
Dewpoint: 19.0°C (66°F) [RH = 74%]
Pressure (altimeter): 29.91 inches Hg (1013.0 mb)
Winds: from the NNE (20 degrees) at 3 MPH (3 knots; 1.5 m/s)
Visibility: 6 or more miles (10+ km)
Ceiling: 6800 feet AGL
Clouds: broken clouds at 6800 feet AGL
overcast cloud deck at 11000 feet AGL
Weather: no significant weather observed at this time

METAR text: LIPQ 042350Z AUTO VRB02KT 9999 BKN100/// BKN150/// 24/19 Q1013
Conditions at: LIPQ (RONCHI LEGIONARI, IT) observed 2350 UTC 04 July 2022
Temperature: 24.0°C (75°F)
Dewpoint: 19.0°C (66°F) [RH = 74%]
Pressure (altimeter): 29.91 inches Hg (1013.0 mb)
Winds: variable direction winds at 2 MPH (2 knots; 1.0 m/s)
Visibility: 6 or more miles (10+ km)
Ceiling: 10000 feet AGL
Clouds: broken clouds at 10000 feet AGL
broken clouds at 15000 feet AGL
Weather: no significant weather observed at this time

METAR text: LIPQ 042320Z AUTO 36006KT 9999 SCT100/// BKN130/// BKN140/// 23/18 Q1013
Conditions at: LIPQ (RONCHI LEGIONARI, IT) observed 2320 UTC 04 July 2022
Temperature: 23.0°C (73°F)
Dewpoint: 18.0°C (64°F) [RH = 73%]
Pressure (altimeter): 29.91 inches Hg (1013.0 mb)
Winds: from the N (360 degrees) at 7 MPH (6 knots; 3.1 m/s)
Visibility: 6 or more miles (10+ km)
Ceiling: 13000 feet AGL
Clouds: scattered clouds at 10000 feet AGL
broken clouds at 13000 feet AGL
broken clouds at 14000 feet AGL
Weather: no significant weather observed at this time

METAR text: LIPQ 042250Z AUTO VRB03KT 9999 BKN100/// 23/20 Q1013
Conditions at: LIPQ (RONCHI LEGIONARI, IT) observed 2250 UTC 04 July 2022
Temperature: 23.0°C (73°F)
Dewpoint: 20.0°C (68°F) [RH = 83%]
Pressure (altimeter): 29.91 inches Hg (1013.0 mb)
Winds: variable direction winds at 3 MPH (3 knots; 1.5 m/s)
Visibility: 6 or more miles (10+ km)
Ceiling: 10000 feet AGL
Clouds: broken clouds at 10000 feet AGL
Weather: no significant weather observed at this time

METAR text: LIPQ 042220Z AUTO 24004KT 220V340 9999 OVC100/// 24/20 Q1014
Conditions at: LIPQ (RONCHI LEGIONARI, IT) observed 2220 UTC 04 July 2022
Temperature: 24.0°C (75°F)
Dewpoint: 20.0°C (68°F) [RH = 78%]
Pressure (altimeter): 29.94 inches Hg (1014.0 mb)
Winds: from the WSW (240 degrees) at 5 MPH (4 knots; 2.1 m/s)
Visibility: 6 or more miles (10+ km)
Ceiling: 10000 feet AGL
Clouds: overcast cloud deck at 10000 feet AGL
Weather: no significant weather observed at this time

METAR text: LIPQ 042150Z AUTO 30005KT 9999 FEW069/// BKN110/// 24/20 Q1014 RERA
Conditions at: LIPQ (RONCHI LEGIONARI, IT) observed 2150 UTC 04 July 2022
Temperature: 24.0°C (75°F)
Dewpoint: 20.0°C (68°F) [RH = 78%]
Pressure (altimeter): 29.94 inches Hg (1014.0 mb)
Winds: from the WNW (300 degrees) at 6 MPH (5 knots; 2.6 m/s)
Visibility: 6 or more miles (10+ km)
Ceiling: 11000 feet AGL
Clouds: few clouds at 6900 feet AGL
broken clouds at 11000 feet AGL
Weather: no significant weather observed at this time

METAR text: LIPQ 042120Z AUTO 30013KT 9999 RA BKN059/// BKN094/// OVC110/// 25/18 Q1014
Conditions at: LIPQ (RONCHI LEGIONARI, IT) observed 2120 UTC 04 July 2022
Temperature: 25.0°C (77°F)
Dewpoint: 18.0°C (64°F) [RH = 65%]
Pressure (altimeter): 29.94 inches Hg (1014.0 mb)
Winds: from the WNW (300 degrees) at 15 MPH (13 knots; 6.7 m/s)
Visibility: 6 or more miles (10+ km)
Ceiling: 5900 feet AGL
Clouds: broken clouds at 5900 feet AGL
broken clouds at 9400 feet AGL
overcast cloud deck at 11000 feet AGL
Weather: RA  (moderate rain)

METAR text: LIPQ 042050Z AUTO 22006KT 180V260 9999 BKN097/// BKN110/// 28/24 Q1014
Conditions at: LIPQ (RONCHI LEGIONARI, IT) observed 2050 UTC 04 July 2022
Temperature: 28.0°C (82°F)
Dewpoint: 24.0°C (75°F) [RH = 79%]
Pressure (altimeter): 29.94 inches Hg (1014.0 mb)
Winds: from the SW (220 degrees) at 7 MPH (6 knots; 3.1 m/s)
Visibility: 6 or more miles (10+ km)
Ceiling: 9700 feet AGL
Clouds: broken clouds at 9700 feet AGL
broken clouds at 11000 feet AGL
Weather: no significant weather observed at this time

METAR text: LIPQ 042020Z AUTO 18002KT 9999 SCT110/// BKN140/// 28/23 Q1013
Conditions at: LIPQ (RONCHI LEGIONARI, IT) observed 2020 UTC 04 July 2022
Temperature: 28.0°C (82°F)
Dewpoint: 23.0°C (73°F) [RH = 74%]
Pressure (altimeter): 29.91 inches Hg (1013.0 mb)
Winds: from the S (180 degrees) at 2 MPH (2 knots; 1.0 m/s)
Visibility: 6 or more miles (10+ km)
Ceiling: 14000 feet AGL
Clouds: scattered clouds at 11000 feet AGL
broken clouds at 14000 feet AGL
Weather: no significant weather observed at this time

METAR text: LIPQ 041950Z AUTO 15005KT 9999 NCD 28/22 Q1013
Conditions at: LIPQ (RONCHI LEGIONARI, IT) observed 1950 UTC 04 July 2022
Temperature: 28.0°C (82°F)
Dewpoint: 22.0°C (72°F) [RH = 70%]
Pressure (altimeter): 29.91 inches Hg (1013.0 mb)
Winds: from the SSE (150 degrees) at 6 MPH (5 knots; 2.6 m/s)
Visibility: 6 or more miles (10+ km)
Ceiling: at least 12,000 feet AGL
Clouds: sky clear below 12,000 feet AGL
Weather: no significant weather observed at this time

METAR text: LIPQ 041920Z AUTO 15004KT 9999 NCD 28/23 Q1012
Conditions at: LIPQ (RONCHI LEGIONARI, IT) observed 1920 UTC 04 July 2022
Temperature: 28.0°C (82°F)
Dewpoint: 23.0°C (73°F) [RH = 74%]
Pressure (altimeter): 29.88 inches Hg (1012.0 mb)
Winds: from the SSE (150 degrees) at 5 MPH (4 knots; 2.1 m/s)
Visibility: 6 or more miles (10+ km)
Ceiling: at least 12,000 feet AGL
Clouds: sky clear below 12,000 feet AGL
Weather: no significant weather observed at this time

METAR text: LIPQ 041850Z AUTO 17003KT 9999 NCD 29/22 Q1012
Conditions at: LIPQ (RONCHI LEGIONARI, IT) observed 1850 UTC 04 July 2022
Temperature: 29.0°C (84°F)
Dewpoint: 22.0°C (72°F) [RH = 66%]
Pressure (altimeter): 29.88 inches Hg (1012.0 mb)
Winds: from the S (170 degrees) at 3 MPH (3 knots; 1.5 m/s)
Visibility: 6 or more miles (10+ km)
Ceiling: at least 12,000 feet AGL
Clouds: sky clear below 12,000 feet AGL
Weather: no significant weather observed at this time

METAR text: LIPQ 041820Z AUTO 14005KT 9999 NCD 30/22 Q1012
Conditions at: LIPQ (RONCHI LEGIONARI, IT) observed 1820 UTC 04 July 2022
Temperature: 30.0°C (86°F)
Dewpoint: 22.0°C (72°F) [RH = 62%]
Pressure (altimeter): 29.88 inches Hg (1012.0 mb)
Winds: from the SE (140 degrees) at 6 MPH (5 knots; 2.6 m/s)
Visibility: 6 or more miles (10+ km)
Ceiling: at least 12,000 feet AGL
Clouds: sky clear below 12,000 feet AGL
Weather: no significant weather observed at this time

METAR text: LIPQ 041750Z AUTO 17004KT 9999 NCD 31/22 Q1012
Conditions at: LIPQ (RONCHI LEGIONARI, IT) observed 1750 UTC 04 July 2022
Temperature: 31.0°C (88°F)
Dewpoint: 22.0°C (72°F) [RH = 59%]
Pressure (altimeter): 29.88 inches Hg (1012.0 mb)
Winds: from the S (170 degrees) at 5 MPH (4 knots; 2.1 m/s)
Visibility: 6 or more miles (10+ km)
Ceiling: at least 12,000 feet AGL
Clouds: sky clear below 12,000 feet AGL
Weather: no significant weather observed at this time

METAR text: LIPQ 041720Z AUTO 18004KT 9999 NCD 32/21 Q1011
Conditions at: LIPQ (RONCHI LEGIONARI, IT) observed 1720 UTC 04 July 2022
Temperature: 32.0°C (90°F)
Dewpoint: 21.0°C (70°F) [RH = 52%]
Pressure (altimeter): 29.85 inches Hg (1011.0 mb)
Winds: from the S (180 degrees) at 5 MPH (4 knots; 2.1 m/s)
Visibility: 6 or more miles (10+ km)
Ceiling: at least 12,000 feet AGL
Clouds: sky clear below 12,000 feet AGL
Weather: no significant weather observed at this time

METAR text: LIPQ 041650Z AUTO 19006KT 9999 NCD 33/18 Q1011
Conditions at: LIPQ (RONCHI LEGIONARI, IT) observed 1650 UTC 04 July 2022
Temperature: 33.0°C (91°F)
Dewpoint: 18.0°C (64°F) [RH = 41%]
Pressure (altimeter): 29.85 inches Hg (1011.0 mb)
Winds: from the S (190 degrees) at 7 MPH (6 knots; 3.1 m/s)
Visibility: 6 or more miles (10+ km)
Ceiling: at least 12,000 feet AGL
Clouds: sky clear below 12,000 feet AGL
Weather: no significant weather observed at this time

METAR text: LIPQ 041620Z AUTO 20006KT 160V220 9999 NCD 34/17 Q1011
Conditions at: LIPQ (RONCHI LEGIONARI, IT) observed 1620 UTC 04 July 2022
Temperature: 34.0°C (93°F)
Dewpoint: 17.0°C (63°F) [RH = 36%]
Pressure (altimeter): 29.85 inches Hg (1011.0 mb)
Winds: from the SSW (200 degrees) at 7 MPH (6 knots; 3.1 m/s)
Visibility: 6 or more miles (10+ km)
Ceiling: at least 12,000 feet AGL
Clouds: sky clear below 12,000 feet AGL
Weather: no significant weather observed at this time

METAR text: LIPQ 041550Z AUTO 20005KT 170V250 9999 FEW230/// 34/17 Q1011
Conditions at: LIPQ (RONCHI LEGIONARI, IT) observed 1550 UTC 04 July 2022
Temperature: 34.0°C (93°F)
Dewpoint: 17.0°C (63°F) [RH = 36%]
Pressure (altimeter): 29.85 inches Hg (1011.0 mb)
Winds: from the SSW (200 degrees) at 6 MPH (5 knots; 2.6 m/s)
Visibility: 6 or more miles (10+ km)
Ceiling: at least 12,000 feet AGL
Clouds: few clouds at 23000 feet AGL
Weather: no significant weather observed at this time

METAR text: LIPQ 041520Z AUTO 19006KT 150V220 9999 FEW220/// 34/18 Q1012
Conditions at: LIPQ (RONCHI LEGIONARI, IT) observed 1520 UTC 04 July 2022
Temperature: 34.0°C (93°F)
Dewpoint: 18.0°C (64°F) [RH = 39%]
Pressure (altimeter): 29.88 inches Hg (1012.0 mb)
Winds: from the S (190 degrees) at 7 MPH (6 knots; 3.1 m/s)
Visibility: 6 or more miles (10+ km)
Ceiling: at least 12,000 feet AGL
Clouds: few clouds at 22000 feet AGL
Weather: no significant weather observed at this time

METAR text: LIPQ 041450Z AUTO 18006KT 150V210 9999 BKN200/// 34/18 Q1012
Conditions at: LIPQ (RONCHI LEGIONARI, IT) observed 1450 UTC 04 July 2022
Temperature: 34.0°C (93°F)
Dewpoint: 18.0°C (64°F) [RH = 39%]
Pressure (altimeter): 29.88 inches Hg (1012.0 mb)
Winds: from the S (180 degrees) at 7 MPH (6 knots; 3.1 m/s)
Visibility: 6 or more miles (10+ km)
Ceiling: 20000 feet AGL
Clouds: broken clouds at 20000 feet AGL
Weather: no significant weather observed at this time

METAR text: LIPQ 041420Z AUTO 20007KT 170V230 9999 BKN160/// 34/18 Q1013
Conditions at: LIPQ (RONCHI LEGIONARI, IT) observed 1420 UTC 04 July 2022
Temperature: 34.0°C (93°F)
Dewpoint: 18.0°C (64°F) [RH = 39%]
Pressure (altimeter): 29.91 inches Hg (1013.0 mb)
Winds: from the SSW (200 degrees) at 8 MPH (7 knots; 3.6 m/s)
Visibility: 6 or more miles (10+ km)
Ceiling: 16000 feet AGL
Clouds: broken clouds at 16000 feet AGL
Weather: no significant weather observed at this time

METAR text: LIPQ 041350Z AUTO 21008KT 9999 SCT180/// 35/18 Q1013
Conditions at: LIPQ (RONCHI LEGIONARI, IT) observed 1350 UTC 04 July 2022
Temperature: 35.0°C (95°F)
Dewpoint: 18.0°C (64°F) [RH = 37%]
Pressure (altimeter): 29.91 inches Hg (1013.0 mb)
Winds: from the SSW (210 degrees) at 9 MPH (8 knots; 4.1 m/s)
Visibility: 6 or more miles (10+ km)
Ceiling: at least 12,000 feet AGL
Clouds: scattered clouds at 18000 feet AGL
Weather: no significant weather observed at this time

METAR text: LIPQ 041320Z AUTO 23009KT 9999 FEW130/// 36/15 Q1013
Conditions at: LIPQ (RONCHI LEGIONARI, IT) observed 1320 UTC 04 July 2022
Temperature: 36.0°C (97°F)
Dewpoint: 15.0°C (59°F) [RH = 29%]
Pressure (altimeter): 29.91 inches Hg (1013.0 mb)
Winds: from the SW (230 degrees) at 10 MPH (9 knots; 4.6 m/s)
Visibility: 6 or more miles (10+ km)
Ceiling: at least 12,000 feet AGL
Clouds: few clouds at 13000 feet AGL
Weather: no significant weather observed at this time

METAR text: LIPQ 041250Z AUTO 22007KT 190V260 9999 NCD 37/12 Q1013
Conditions at: LIPQ (RONCHI LEGIONARI, IT) observed 1250 UTC 04 July 2022
Temperature: 37.0°C (99°F)
Dewpoint: 12.0°C (54°F) [RH = 22%]
Pressure (altimeter): 29.91 inches Hg (1013.0 mb)
Winds: from the SW (220 degrees) at 8 MPH (7 knots; 3.6 m/s)
Visibility: 6 or more miles (10+ km)
Ceiling: at least 12,000 feet AGL
Clouds: sky clear below 12,000 feet AGL
Weather: no significant weather observed at this time

METAR text: LIPQ 041220Z AUTO 26007KT 220V280 9999 FEW140/// 36/11 Q1013
Conditions at: LIPQ (RONCHI LEGIONARI, IT) observed 1220 UTC 04 July 2022
Temperature: 36.0°C (97°F)
Dewpoint: 11.0°C (52°F) [RH = 22%]
Pressure (altimeter): 29.91 inches Hg (1013.0 mb)
Winds: from the W (260 degrees) at 8 MPH (7 knots; 3.6 m/s)
Visibility: 6 or more miles (10+ km)
Ceiling: at least 12,000 feet AGL
Clouds: few clouds at 14000 feet AGL
Weather: no significant weather observed at this time

METAR text: LIPQ 041150Z AUTO 25008KT 230V290 9999 FEW210/// 36/12 Q1013
Conditions at: LIPQ (RONCHI LEGIONARI, IT) observed 1150 UTC 04 July 2022
Temperature: 36.0°C (97°F)
Dewpoint: 12.0°C (54°F) [RH = 24%]
Pressure (altimeter): 29.91 inches Hg (1013.0 mb)
Winds: from the WSW (250 degrees) at 9 MPH (8 knots; 4.1 m/s)
Visibility: 6 or more miles (10+ km)
Ceiling: at least 12,000 feet AGL
Clouds: few clouds at 21000 feet AGL
Weather: no significant weather observed at this time

METAR text: LIPQ 041120Z AUTO 24007KT 200V270 9999 NCD 37/12 Q1013
Conditions at: LIPQ (RONCHI LEGIONARI, IT) observed 1120 UTC 04 July 2022
Temperature: 37.0°C (99°F)
Dewpoint: 12.0°C (54°F) [RH = 22%]
Pressure (altimeter): 29.91 inches Hg (1013.0 mb)
Winds: from the WSW (240 degrees) at 8 MPH (7 knots; 3.6 m/s)
Visibility: 6 or more miles (10+ km)
Ceiling: at least 12,000 feet AGL
Clouds: sky clear below 12,000 feet AGL
Weather: no significant weather observed at this time

METAR text: LIPQ 041050Z AUTO 23006KT 190V270 9999 NCD 36/12 Q1014
Conditions at: LIPQ (RONCHI LEGIONARI, IT) observed 1050 UTC 04 July 2022
Temperature: 36.0°C (97°F)
Dewpoint: 12.0°C (54°F) [RH = 24%]
Pressure (altimeter): 29.94 inches Hg (1014.0 mb)
Winds: from the SW (230 degrees) at 7 MPH (6 knots; 3.1 m/s)
Visibility: 6 or more miles (10+ km)
Ceiling: at least 12,000 feet AGL
Clouds: sky clear below 12,000 feet AGL
Weather: no significant weather observed at this time

METAR text: LIPQ 041020Z AUTO 26004KT 200V360 9999 NCD 36/13 Q1014
Conditions at: LIPQ (RONCHI LEGIONARI, IT) observed 1020 UTC 04 July 2022
Temperature: 36.0°C (97°F)
Dewpoint: 13.0°C (55°F) [RH = 25%]
Pressure (altimeter): 29.94 inches Hg (1014.0 mb)
Winds: from the W (260 degrees) at 5 MPH (4 knots; 2.1 m/s)
Visibility: 6 or more miles (10+ km)
Ceiling: at least 12,000 feet AGL
Clouds: sky clear below 12,000 feet AGL
Weather: no significant weather observed at this time

METAR text: LIPQ 040950Z AUTO 29005KT 200V340 9999 NCD 36/13 Q1014
Conditions at: LIPQ (RONCHI LEGIONARI, IT) observed 0950 UTC 04 July 2022
Temperature: 36.0°C (97°F)
Dewpoint: 13.0°C (55°F) [RH = 25%]
Pressure (altimeter): 29.94 inches Hg (1014.0 mb)
Winds: from the WNW (290 degrees) at 6 MPH (5 knots; 2.6 m/s)
Visibility: 6 or more miles (10+ km)
Ceiling: at least 12,000 feet AGL
Clouds: sky clear below 12,000 feet AGL
Weather: no significant weather observed at this time

METAR text: LIPQ 040920Z AUTO 28004KT 230V350 9999 NCD 35/14 Q1014
Conditions at: LIPQ (RONCHI LEGIONARI, IT) observed 0920 UTC 04 July 2022
Temperature: 35.0°C (95°F)
Dewpoint: 14.0°C (57°F) [RH = 28%]
Pressure (altimeter): 29.94 inches Hg (1014.0 mb)
Winds: from the W (280 degrees) at 5 MPH (4 knots; 2.1 m/s)
Visibility: 6 or more miles (10+ km)
Ceiling: at least 12,000 feet AGL
Clouds: sky clear below 12,000 feet AGL
Weather: no significant weather observed at this time

METAR text: LIPQ 040850Z AUTO 34005KT 290V060 9999 NCD 35/15 Q1014
Conditions at: LIPQ (RONCHI LEGIONARI, IT) observed 0850 UTC 04 July 2022
Temperature: 35.0°C (95°F)
Dewpoint: 15.0°C (59°F) [RH = 30%]
Pressure (altimeter): 29.94 inches Hg (1014.0 mb)
Winds: from the NNW (340 degrees) at 6 MPH (5 knots; 2.6 m/s)
Visibility: 6 or more miles (10+ km)
Ceiling: at least 12,000 feet AGL
Clouds: sky clear below 12,000 feet AGL
Weather: no significant weather observed at this time

METAR text: LIPQ 040820Z AUTO 31005KT 270V360 9999 NCD 33/15 Q1014
Conditions at: LIPQ (RONCHI LEGIONARI, IT) observed 0820 UTC 04 July 2022
Temperature: 33.0°C (91°F)
Dewpoint: 15.0°C (59°F) [RH = 34%]
Pressure (altimeter): 29.94 inches Hg (1014.0 mb)
Winds: from the NW (310 degrees) at 6 MPH (5 knots; 2.6 m/s)
Visibility: 6 or more miles (10+ km)
Ceiling: at least 12,000 feet AGL
Clouds: sky clear below 12,000 feet AGL
Weather: no significant weather observed at this time

METAR text: LIPQ 040750Z AUTO 33005KT 300V360 9999 NCD 33/15 Q1014
Conditions at: LIPQ (RONCHI LEGIONARI, IT) observed 0750 UTC 04 July 2022
Temperature: 33.0°C (91°F)
Dewpoint: 15.0°C (59°F) [RH = 34%]
Pressure (altimeter): 29.94 inches Hg (1014.0 mb)
Winds: from the NNW (330 degrees) at 6 MPH (5 knots; 2.6 m/s)
Visibility: 6 or more miles (10+ km)
Ceiling: at least 12,000 feet AGL
Clouds: sky clear below 12,000 feet AGL
Weather: no significant weather observed at this time

METAR text: LIPQ 040720Z AUTO 33004KT 290V360 9999 NCD 31/15 Q1014
Conditions at: LIPQ (RONCHI LEGIONARI, IT) observed 0720 UTC 04 July 2022
Temperature: 31.0°C (88°F)
Dewpoint: 15.0°C (59°F) [RH = 38%]
Pressure (altimeter): 29.94 inches Hg (1014.0 mb)
Winds: from the NNW (330 degrees) at 5 MPH (4 knots; 2.1 m/s)
Visibility: 6 or more miles (10+ km)
Ceiling: at least 12,000 feet AGL
Clouds: sky clear below 12,000 feet AGL
Weather: no significant weather observed at this time

METAR text: LIPQ 040650Z AUTO 35004KT 9999 SCT190/// 30/17 Q1015
Conditions at: LIPQ (RONCHI LEGIONARI, IT) observed 0650 UTC 04 July 2022
Temperature: 30.0°C (86°F)
Dewpoint: 17.0°C (63°F) [RH = 46%]
Pressure (altimeter): 29.97 inches Hg (1015.0 mb)
Winds: from the N (350 degrees) at 5 MPH (4 knots; 2.1 m/s)
Visibility: 6 or more miles (10+ km)
Ceiling: at least 12,000 feet AGL
Clouds: scattered clouds at 19000 feet AGL
Weather: no significant weather observed at this time

METAR text: LIPQ 040620Z AUTO VRB02KT 9999 BKN180/// 29/14 Q1015
Conditions at: LIPQ (RONCHI LEGIONARI, IT) observed 0620 UTC 04 July 2022
Temperature: 29.0°C (84°F)
Dewpoint: 14.0°C (57°F) [RH = 40%]
Pressure (altimeter): 29.97 inches Hg (1015.0 mb)
Winds: variable direction winds at 2 MPH (2 knots; 1.0 m/s)
Visibility: 6 or more miles (10+ km)
Ceiling: 18000 feet AGL
Clouds: broken clouds at 18000 feet AGL
Weather: no significant weather observed at this time

METAR text: LIPQ 040550Z AUTO 12003KT 080V200 9999 BKN180/// 28/14 Q1015
Conditions at: LIPQ (RONCHI LEGIONARI, IT) observed 0550 UTC 04 July 2022
Temperature: 28.0°C (82°F)
Dewpoint: 14.0°C (57°F) [RH = 42%]
Pressure (altimeter): 29.97 inches Hg (1015.0 mb)
Winds: from the ESE (120 degrees) at 3 MPH (3 knots; 1.5 m/s)
Visibility: 6 or more miles (10+ km)
Ceiling: 18000 feet AGL
Clouds: broken clouds at 18000 feet AGL
Weather: no significant weather observed at this time

METAR text: LIPQ 040520Z AUTO VRB02KT 9999 BKN190/// 26/17 Q1015
Conditions at: LIPQ (RONCHI LEGIONARI, IT) observed 0520 UTC 04 July 2022
Temperature: 26.0°C (79°F)
Dewpoint: 17.0°C (63°F) [RH = 58%]
Pressure (altimeter): 29.97 inches Hg (1015.0 mb)
Winds: variable direction winds at 2 MPH (2 knots; 1.0 m/s)
Visibility: 6 or more miles (10+ km)
Ceiling: 19000 feet AGL
Clouds: broken clouds at 19000 feet AGL
Weather: no significant weather observed at this time

METAR text: LIPQ 040450Z AUTO 04003KT 010V070 9999 BKN210/// 25/16 Q1015
Conditions at: LIPQ (RONCHI LEGIONARI, IT) observed 0450 UTC 04 July 2022
Temperature: 25.0°C (77°F)
Dewpoint: 16.0°C (61°F) [RH = 57%]
Pressure (altimeter): 29.97 inches Hg (1015.0 mb)
Winds: from the NE (40 degrees) at 3 MPH (3 knots; 1.5 m/s)
Visibility: 6 or more miles (10+ km)
Ceiling: 21000 feet AGL
Clouds: broken clouds at 21000 feet AGL
Weather: no significant weather observed at this time

METAR text: LIPQ 040420Z AUTO 01003KT 9999 BKN140/// 22/17 Q1015
Conditions at: LIPQ (RONCHI LEGIONARI, IT) observed 0420 UTC 04 July 2022
Temperature: 22.0°C (72°F)
Dewpoint: 17.0°C (63°F) [RH = 73%]
Pressure (altimeter): 29.97 inches Hg (1015.0 mb)
Winds: from the N (10 degrees) at 3 MPH (3 knots; 1.5 m/s)
Visibility: 6 or more miles (10+ km)
Ceiling: 14000 feet AGL
Clouds: broken clouds at 14000 feet AGL
Weather: no significant weather observed at this time

METAR text: LIPQ 040350Z AUTO VRB02KT 9999 BKN130/// 22/16 Q1015
Conditions at: LIPQ (RONCHI LEGIONARI, IT) observed 0350 UTC 04 July 2022
Temperature: 22.0°C (72°F)
Dewpoint: 16.0°C (61°F) [RH = 69%]
Pressure (altimeter): 29.97 inches Hg (1015.0 mb)
Winds: variable direction winds at 2 MPH (2 knots; 1.0 m/s)
Visibility: 6 or more miles (10+ km)
Ceiling: 13000 feet AGL
Clouds: broken clouds at 13000 feet AGL
Weather: no significant weather observed at this time

METAR text: LIPQ 040320Z AUTO 02004KT 9999 SCT240/// 21/17 Q1015
Conditions at: LIPQ (RONCHI LEGIONARI, IT) observed 0320 UTC 04 July 2022
Temperature: 21.0°C (70°F)
Dewpoint: 17.0°C (63°F) [RH = 78%]
Pressure (altimeter): 29.97 inches Hg (1015.0 mb)
Winds: from the NNE (20 degrees) at 5 MPH (4 knots; 2.1 m/s)
Visibility: 6 or more miles (10+ km)
Ceiling: at least 12,000 feet AGL
Clouds: scattered clouds at 24000 feet AGL
Weather: no significant weather observed at this time

METAR text: LIPQ 040250Z AUTO 07003KT 9999 SCT240/// 22/17 Q1015
Conditions at: LIPQ (RONCHI LEGIONARI, IT) observed 0250 UTC 04 July 2022
Temperature: 22.0°C (72°F)
Dewpoint: 17.0°C (63°F) [RH = 73%]
Pressure (altimeter): 29.97 inches Hg (1015.0 mb)
Winds: from the ENE (70 degrees) at 3 MPH (3 knots; 1.5 m/s)
Visibility: 6 or more miles (10+ km)
Ceiling: at least 12,000 feet AGL
Clouds: scattered clouds at 24000 feet AGL
Weather: no significant weather observed at this time

METAR text: LIPQ 040220Z AUTO 03004KT 9999 NCD 22/17 Q1015
Conditions at: LIPQ (RONCHI LEGIONARI, IT) observed 0220 UTC 04 July 2022
Temperature: 22.0°C (72°F)
Dewpoint: 17.0°C (63°F) [RH = 73%]
Pressure (altimeter): 29.97 inches Hg (1015.0 mb)
Winds: from the NNE (30 degrees) at 5 MPH (4 knots; 2.1 m/s)
Visibility: 6 or more miles (10+ km)
Ceiling: at least 12,000 feet AGL
Clouds: sky clear below 12,000 feet AGL
Weather: no significant weather observed at this time

METAR text: LIPQ 040150Z AUTO 08003KT 060V120 9999 NCD 22/17 Q1015
Conditions at: LIPQ (RONCHI LEGIONARI, IT) observed 0150 UTC 04 July 2022
Temperature: 22.0°C (72°F)
Dewpoint: 17.0°C (63°F) [RH = 73%]
Pressure (altimeter): 29.97 inches Hg (1015.0 mb)
Winds: from the E (80 degrees) at 3 MPH (3 knots; 1.5 m/s)
Visibility: 6 or more miles (10+ km)
Ceiling: at least 12,000 feet AGL
Clouds: sky clear below 12,000 feet AGL
Weather: no significant weather observed at this time

METAR text: LIPQ 040120Z AUTO VRB02KT 9999 NCD 21/18 Q1015
Conditions at: LIPQ (RONCHI LEGIONARI, IT) observed 0120 UTC 04 July 2022
Temperature: 21.0°C (70°F)
Dewpoint: 18.0°C (64°F) [RH = 83%]
Pressure (altimeter): 29.97 inches Hg (1015.0 mb)
Winds: variable direction winds at 2 MPH (2 knots; 1.0 m/s)
Visibility: 6 or more miles (10+ km)
Ceiling: at least 12,000 feet AGL
Clouds: sky clear below 12,000 feet AGL
Weather: no significant weather observed at this time

METAR text: LIPQ 040050Z AUTO VRB02KT 9999 NCD 21/18 Q1015
Conditions at: LIPQ (RONCHI LEGIONARI, IT) observed 0050 UTC 04 July 2022
Temperature: 21.0°C (70°F)
Dewpoint: 18.0°C (64°F) [RH = 83%]
Pressure (altimeter): 29.97 inches Hg (1015.0 mb)
Winds: variable direction winds at 2 MPH (2 knots; 1.0 m/s)
Visibility: 6 or more miles (10+ km)
Ceiling: at least 12,000 feet AGL
Clouds: sky clear below 12,000 feet AGL
Weather: no significant weather observed at this time

METAR text: LIPQ 040020Z AUTO VRB02KT 9999 NCD 23/17 Q1016
Conditions at: LIPQ (RONCHI LEGIONARI, IT) observed 0020 UTC 04 July 2022
Temperature: 23.0°C (73°F)
Dewpoint: 17.0°C (63°F) [RH = 69%]
Pressure (altimeter): 30.00 inches Hg (1016.0 mb)
Winds: variable direction winds at 2 MPH (2 knots; 1.0 m/s)
Visibility: 6 or more miles (10+ km)
Ceiling: at least 12,000 feet AGL
Clouds: sky clear below 12,000 feet AGL
Weather: no significant weather observed at this time

METAR text: LIPQ 032350Z AUTO 11003KT 9999 NCD 24/17 Q1015
Conditions at: LIPQ (RONCHI LEGIONARI, IT) observed 2350 UTC 03 July 2022
Temperature: 24.0°C (75°F)
Dewpoint: 17.0°C (63°F) [RH = 65%]
Pressure (altimeter): 29.97 inches Hg (1015.0 mb)
Winds: from the ESE (110 degrees) at 3 MPH (3 knots; 1.5 m/s)
Visibility: 6 or more miles (10+ km)
Ceiling: at least 12,000 feet AGL
Clouds: sky clear below 12,000 feet AGL
Weather: no significant weather observed at this time

METAR text: LIPQ 032320Z AUTO 03005KT 9999 NCD 23/18 Q1016
Conditions at: LIPQ (RONCHI LEGIONARI, IT) observed 2320 UTC 03 July 2022
Temperature: 23.0°C (73°F)
Dewpoint: 18.0°C (64°F) [RH = 73%]
Pressure (altimeter): 30.00 inches Hg (1016.0 mb)
Winds: from the NNE (30 degrees) at 6 MPH (5 knots; 2.6 m/s)
Visibility: 6 or more miles (10+ km)
Ceiling: at least 12,000 feet AGL
Clouds: sky clear below 12,000 feet AGL
Weather: no significant weather observed at this time

METAR text: LIPQ 032250Z AUTO 36003KT 9999 NCD 22/19 Q1016
Conditions at: LIPQ (RONCHI LEGIONARI, IT) observed 2250 UTC 03 July 2022
Temperature: 22.0°C (72°F)
Dewpoint: 19.0°C (66°F) [RH = 83%]
Pressure (altimeter): 30.00 inches Hg (1016.0 mb)
Winds: from the N (360 degrees) at 3 MPH (3 knots; 1.5 m/s)
Visibility: 6 or more miles (10+ km)
Ceiling: at least 12,000 feet AGL
Clouds: sky clear below 12,000 feet AGL
Weather: no significant weather observed at this time

METAR text: LIPQ 032220Z AUTO 36004KT 9999 NCD 23/19 Q1016
Conditions at: LIPQ (RONCHI LEGIONARI, IT) observed 2220 UTC 03 July 2022
Temperature: 23.0°C (73°F)
Dewpoint: 19.0°C (66°F) [RH = 78%]
Pressure (altimeter): 30.00 inches Hg (1016.0 mb)
Winds: from the N (360 degrees) at 5 MPH (4 knots; 2.1 m/s)
Visibility: 6 or more miles (10+ km)
Ceiling: at least 12,000 feet AGL
Clouds: sky clear below 12,000 feet AGL
Weather: no significant weather observed at this time

METAR text: LIPQ 032150Z AUTO VRB02KT 9999 NCD 23/19 Q1016
Conditions at: LIPQ (RONCHI LEGIONARI, IT) observed 2150 UTC 03 July 2022
Temperature: 23.0°C (73°F)
Dewpoint: 19.0°C (66°F) [RH = 78%]
Pressure (altimeter): 30.00 inches Hg (1016.0 mb)
Winds: variable direction winds at 2 MPH (2 knots; 1.0 m/s)
Visibility: 6 or more miles (10+ km)
Ceiling: at least 12,000 feet AGL
Clouds: sky clear below 12,000 feet AGL
Weather: no significant weather observed at this time

METAR text: LIPQ 032120Z AUTO VRB01KT 9999 FEW110/// 25/19 Q1016
Conditions at: LIPQ (RONCHI LEGIONARI, IT) observed 2120 UTC 03 July 2022
Temperature: 25.0°C (77°F)
Dewpoint: 19.0°C (66°F) [RH = 69%]
Pressure (altimeter): 30.00 inches Hg (1016.0 mb)
Winds: variable direction winds at 1 MPH (1 knots; 0.5 m/s)
Visibility: 6 or more miles (10+ km)
Ceiling: at least 12,000 feet AGL
Clouds: few clouds at 11000 feet AGL
Weather: no significant weather observed at this time

METAR text: LIPQ 032050Z AUTO VRB02KT 9999 SCT110/// 24/19 Q1016
Conditions at: LIPQ (RONCHI LEGIONARI, IT) observed 2050 UTC 03 July 2022
Temperature: 24.0°C (75°F)
Dewpoint: 19.0°C (66°F) [RH = 74%]
Pressure (altimeter): 30.00 inches Hg (1016.0 mb)
Winds: variable direction winds at 2 MPH (2 knots; 1.0 m/s)
Visibility: 6 or more miles (10+ km)
Ceiling: at least 12,000 feet AGL
Clouds: scattered clouds at 11000 feet AGL
Weather: no significant weather observed at this time

METAR text: LIPQ 032020Z AUTO 14004KT 110V210 9999 FEW120/// 27/18 Q1015
Conditions at: LIPQ (RONCHI LEGIONARI, IT) observed 2020 UTC 03 July 2022
Temperature: 27.0°C (81°F)
Dewpoint: 18.0°C (64°F) [RH = 58%]
Pressure (altimeter): 29.97 inches Hg (1015.0 mb)
Winds: from the SE (140 degrees) at 5 MPH (4 knots; 2.1 m/s)
Visibility: 6 or more miles (10+ km)
Ceiling: at least 12,000 feet AGL
Clouds: few clouds at 12000 feet AGL
Weather: no significant weather observed at this time

METAR text: LIPQ 031950Z AUTO 15002KT 9999 FEW120/// 27/19 Q1015
Conditions at: LIPQ (RONCHI LEGIONARI, IT) observed 1950 UTC 03 July 2022
Temperature: 27.0°C (81°F)
Dewpoint: 19.0°C (66°F) [RH = 62%]
Pressure (altimeter): 29.97 inches Hg (1015.0 mb)
Winds: from the SSE (150 degrees) at 2 MPH (2 knots; 1.0 m/s)
Visibility: 6 or more miles (10+ km)
Ceiling: at least 12,000 feet AGL
Clouds: few clouds at 12000 feet AGL
Weather: no significant weather observed at this time

METAR text: LIPQ 031920Z AUTO 16004KT 9999 NCD 28/19 Q1015
Conditions at: LIPQ (RONCHI LEGIONARI, IT) observed 1920 UTC 03 July 2022
Temperature: 28.0°C (82°F)
Dewpoint: 19.0°C (66°F) [RH = 58%]
Pressure (altimeter): 29.97 inches Hg (1015.0 mb)
Winds: from the SSE (160 degrees) at 5 MPH (4 knots; 2.1 m/s)
Visibility: 6 or more miles (10+ km)
Ceiling: at least 12,000 feet AGL
Clouds: sky clear below 12,000 feet AGL
Weather: no significant weather observed at this time

METAR text: LIPQ 031850Z AUTO 14005KT 9999 NCD 29/20 Q1015
Conditions at: LIPQ (RONCHI LEGIONARI, IT) observed 1850 UTC 03 July 2022
Temperature: 29.0°C (84°F)
Dewpoint: 20.0°C (68°F) [RH = 58%]
Pressure (altimeter): 29.97 inches Hg (1015.0 mb)
Winds: from the SE (140 degrees) at 6 MPH (5 knots; 2.6 m/s)
Visibility: 6 or more miles (10+ km)
Ceiling: at least 12,000 feet AGL
Clouds: sky clear below 12,000 feet AGL
Weather: no significant weather observed at this time

METAR text: LIPQ 031820Z AUTO 14005KT 9999 NCD 30/21 Q1015
Conditions at: LIPQ (RONCHI LEGIONARI, IT) observed 1820 UTC 03 July 2022
Temperature: 30.0°C (86°F)
Dewpoint: 21.0°C (70°F) [RH = 59%]
Pressure (altimeter): 29.97 inches Hg (1015.0 mb)
Winds: from the SE (140 degrees) at 6 MPH (5 knots; 2.6 m/s)
Visibility: 6 or more miles (10+ km)
Ceiling: at least 12,000 feet AGL
Clouds: sky clear below 12,000 feet AGL
Weather: no significant weather observed at this time

METAR text: LIPQ 031750Z AUTO 15006KT 9999 NCD 30/20 Q1015
Conditions at: LIPQ (RONCHI LEGIONARI, IT) observed 1750 UTC 03 July 2022
Temperature: 30.0°C (86°F)
Dewpoint: 20.0°C (68°F) [RH = 55%]
Pressure (altimeter): 29.97 inches Hg (1015.0 mb)
Winds: from the SSE (150 degrees) at 7 MPH (6 knots; 3.1 m/s)
Visibility: 6 or more miles (10+ km)
Ceiling: at least 12,000 feet AGL
Clouds: sky clear below 12,000 feet AGL
Weather: no significant weather observed at this time

METAR text: LIPQ 031720Z AUTO 16007KT 9999 NCD 31/19 Q1015
Conditions at: LIPQ (RONCHI LEGIONARI, IT) observed 1720 UTC 03 July 2022
Temperature: 31.0°C (88°F)
Dewpoint: 19.0°C (66°F) [RH = 49%]
Pressure (altimeter): 29.97 inches Hg (1015.0 mb)
Winds: from the SSE (160 degrees) at 8 MPH (7 knots; 3.6 m/s)
Visibility: 6 or more miles (10+ km)
Ceiling: at least 12,000 feet AGL
Clouds: sky clear below 12,000 feet AGL
Weather: no significant weather observed at this time

METAR text: LIPQ 031650Z AUTO 21004KT 140V290 9999 NCD 33/20 Q1014
Conditions at: LIPQ (RONCHI LEGIONARI, IT) observed 1650 UTC 03 July 2022
Temperature: 33.0°C (91°F)
Dewpoint: 20.0°C (68°F) [RH = 46%]
Pressure (altimeter): 29.94 inches Hg (1014.0 mb)
Winds: from the SSW (210 degrees) at 5 MPH (4 knots; 2.1 m/s)
Visibility: 6 or more miles (10+ km)
Ceiling: at least 12,000 feet AGL
Clouds: sky clear below 12,000 feet AGL
Weather: no significant weather observed at this time

METAR text: LIPQ 031620Z AUTO 26006KT 230V290 9999 NCD 36/17 Q1014
Conditions at: LIPQ (RONCHI LEGIONARI, IT) observed 1620 UTC 03 July 2022
Temperature: 36.0°C (97°F)
Dewpoint: 17.0°C (63°F) [RH = 33%]
Pressure (altimeter): 29.94 inches Hg (1014.0 mb)
Winds: from the W (260 degrees) at 7 MPH (6 knots; 3.1 m/s)
Visibility: 6 or more miles (10+ km)
Ceiling: at least 12,000 feet AGL
Clouds: sky clear below 12,000 feet AGL
Weather: no significant weather observed at this time

METAR text: LIPQ 031550Z AUTO 26007KT 220V300 9999 NCD 35/17 Q1014
Conditions at: LIPQ (RONCHI LEGIONARI, IT) observed 1550 UTC 03 July 2022
Temperature: 35.0°C (95°F)
Dewpoint: 17.0°C (63°F) [RH = 34%]
Pressure (altimeter): 29.94 inches Hg (1014.0 mb)
Winds: from the W (260 degrees) at 8 MPH (7 knots; 3.6 m/s)
Visibility: 6 or more miles (10+ km)
Ceiling: at least 12,000 feet AGL
Clouds: sky clear below 12,000 feet AGL
Weather: no significant weather observed at this time

METAR text: LIPQ 031520Z AUTO 25008KT 210V310 9999 NCD 35/16 Q1014
Conditions at: LIPQ (RONCHI LEGIONARI, IT) observed 1520 UTC 03 July 2022
Temperature: 35.0°C (95°F)
Dewpoint: 16.0°C (61°F) [RH = 32%]
Pressure (altimeter): 29.94 inches Hg (1014.0 mb)
Winds: from the WSW (250 degrees) at 9 MPH (8 knots; 4.1 m/s)
Visibility: 6 or more miles (10+ km)
Ceiling: at least 12,000 feet AGL
Clouds: sky clear below 12,000 feet AGL
Weather: no significant weather observed at this time

METAR text: LIPQ 031450Z AUTO 24009KT 9999 NCD 35/16 Q1014
Conditions at: LIPQ (RONCHI LEGIONARI, IT) observed 1450 UTC 03 July 2022
Temperature: 35.0°C (95°F)
Dewpoint: 16.0°C (61°F) [RH = 32%]
Pressure (altimeter): 29.94 inches Hg (1014.0 mb)
Winds: from the WSW (240 degrees) at 10 MPH (9 knots; 4.6 m/s)
Visibility: 6 or more miles (10+ km)
Ceiling: at least 12,000 feet AGL
Clouds: sky clear below 12,000 feet AGL
Weather: no significant weather observed at this time

METAR text: LIPQ 031420Z AUTO 23011KT 9999 NCD 35/17 Q1014
Conditions at: LIPQ (RONCHI LEGIONARI, IT) observed 1420 UTC 03 July 2022
Temperature: 35.0°C (95°F)
Dewpoint: 17.0°C (63°F) [RH = 34%]
Pressure (altimeter): 29.94 inches Hg (1014.0 mb)
Winds: from the SW (230 degrees) at 13 MPH (11 knots; 5.7 m/s)
Visibility: 6 or more miles (10+ km)
Ceiling: at least 12,000 feet AGL
Clouds: sky clear below 12,000 feet AGL
Weather: no significant weather observed at this time

METAR text: LIPQ 031350Z AUTO 23010KT 200V280 9999 NCD 35/17 Q1015
Conditions at: LIPQ (RONCHI LEGIONARI, IT) observed 1350 UTC 03 July 2022
Temperature: 35.0°C (95°F)
Dewpoint: 17.0°C (63°F) [RH = 34%]
Pressure (altimeter): 29.97 inches Hg (1015.0 mb)
Winds: from the SW (230 degrees) at 12 MPH (10 knots; 5.1 m/s)
Visibility: 6 or more miles (10+ km)
Ceiling: at least 12,000 feet AGL
Clouds: sky clear below 12,000 feet AGL
Weather: no significant weather observed at this time

METAR text: LIPQ 031320Z AUTO 26009KT 220V290 9999 NCD 35/16 Q1015
Conditions at: LIPQ (RONCHI LEGIONARI, IT) observed 1320 UTC 03 July 2022
Temperature: 35.0°C (95°F)
Dewpoint: 16.0°C (61°F) [RH = 32%]
Pressure (altimeter): 29.97 inches Hg (1015.0 mb)
Winds: from the W (260 degrees) at 10 MPH (9 knots; 4.6 m/s)
Visibility: 6 or more miles (10+ km)
Ceiling: at least 12,000 feet AGL
Clouds: sky clear below 12,000 feet AGL
Weather: no significant weather observed at this time

Forecast for: LIPQ (RONCHI LEGIONARI, IT)
Text: TAF LIPQ 042300Z 0500/0524 VRB05KT 9999 SCT050
Forecast period: 0000 to 0200 UTC 05 July 2022
Forecast type: FROM: standard forecast or significant change
Winds: variable direction winds at 6 MPH (5 knots; 2.6 m/s)
Visibility: 6 or more miles (10+ km)
Ceiling: at least 12,000 feet AGL
Clouds: scattered clouds at 5000 feet AGL
Weather: no significant weather forecast for this period
Text: TEMPO 0500/0506 3000 TSRA
Forecast period: 0000 to 0600 UTC 05 July 2022
Forecast type: TEMPORARY: The following changes expected for less than half the time period
Visibility: 1.86 miles (2.99 km)
Ceiling: unknown
Clouds: missing
Weather: TSRA  (rain associated with thunderstorm(s))
Text: BECMG 0502/0504 02010KT
Forecast period: 0200 UTC 05 July 2022 to 0000 UTC 06 July 2022
Forecast type: BECOMING: Conditions expected to become as follows by 0400 UTC 05 July 2022
Winds: from the NNE (20 degrees) at 12 MPH (10 knots; 5.1 m/s)
Visibility: 6 or more miles (10+ km)
Ceiling: at least 12,000 feet AGL
Clouds: scattered clouds at 5000 feet AGL
Weather: no significant weather forecast for this period